sensor_id;sensor_type;location;lat;lon;timestamp;temperature;humidity
6724;DHT22;3399;52.530;13.304;2024-03-06T00:01:42;4.10;99.90
6724;DHT22;3399;52.530;13.304;2024-03-06T00:04:07;4.10;99.90
6724;DHT22;3399;52.530;13.304;2024-03-06T00:06:33;4.10;99.90
6724;DHT22;3399;52.530;13.304;2024-03-06T00:08:59;4.10;99.90
6724;DHT22;3399;52.530;13.304;2024-03-06T00:11:25;4.00;99.90
6724;DHT22;3399;52.530;13.304;2024-03-06T00:13:50;3.80;99.90
6724;DHT22;3399;52.530;13.304;2024-03-06T00:16:16;3.70;99.90
6724;DHT22;3399;52.530;13.304;2024-03-06T00:18:42;3.60;99.90
6724;DHT22;3399;52.530;13.304;2024-03-06T00:21:07;3.60;99.90
6724;DHT22;3399;52.530;13.304;2024-03-06T00:23:34;3.60;99.90
6724;DHT22;3399;52.530;13.304;2024-03-06T00:26:00;3.50;99.90
6724;DHT22;3399;52.530;13.304;2024-03-06T00:28:27;3.50;99.90
6724;DHT22;3399;52.530;13.304;2024-03-06T00:30:53;3.40;99.90
6724;DHT22;3399;52.530;13.304;2024-03-06T00:33:18;3.40;99.90
6724;DHT22;3399;52.530;13.304;2024-03-06T00:35:44;3.30;99.90
6724;DHT22;3399;52.530;13.304;2024-03-06T00:38:09;3.20;99.90
6724;DHT22;3399;52.530;13.304;2024-03-06T00:40:35;3.20;99.90
6724;DHT22;3399;52.530;13.304;2024-03-06T00:43:01;3.20;99.90
6724;DHT22;3399;52.530;13.304;2024-03-06T00:45:26;3.30;99.90
6724;DHT22;3399;52.530;13.304;2024-03-06T00:47:52;3.30;99.90
6724;DHT22;3399;52.530;13.304;2024-03-06T00:50:17;3.30;99.90
6724;DHT22;3399;52.530;13.304;2024-03-06T00:52:43;3.40;99.90
6724;DHT22;3399;52.530;13.304;2024-03-06T00:55:11;3.40;99.90
6724;DHT22;3399;52.530;13.304;2024-03-06T00:57:36;3.50;99.90
6724;DHT22;3399;52.530;13.304;2024-03-06T01:00:03;3.60;99.90
6724;DHT22;3399;52.530;13.304;2024-03-06T01:02:39;3.70;99.90
6724;DHT22;3399;52.530;13.304;2024-03-06T01:05:06;3.80;99.90
6724;DHT22;3399;52.530;13.304;2024-03-06T01:07:32;3.80;99.90
6724;DHT22;3399;52.530;13.304;2024-03-06T01:09:58;3.60;99.90
6724;DHT22;3399;52.530;13.304;2024-03-06T01:12:24;3.40;99.90
6724;DHT22;3399;52.530;13.304;2024-03-06T01:14:50;3.30;99.90
6724;DHT22;3399;52.530;13.304;2024-03-06T01:17:16;3.30;99.90
6724;DHT22;3399;52.530;13.304;2024-03-06T01:19:42;3.30;99.90
6724;DHT22;3399;52.530;13.304;2024-03-06T01:22:11;3.20;99.90
6724;DHT22;3399;52.530;13.304;2024-03-06T01:24:40;3.10;99.90
6724;DHT22;3399;52.530;13.304;2024-03-06T01:27:05;2.50;99.90
6724;DHT22;3399;52.530;13.304;2024-03-06T01:29:31;2.70;99.90
6724;DHT22;3399;52.530;13.304;2024-03-06T01:31:56;2.70;99.90
6724;DHT22;3399;52.530;13.304;2024-03-06T01:34:22;2.70;99.90
6724;DHT22;3399;52.530;13.304;2024-03-06T01:36:48;2.90;99.90
6724;DHT22;3399;52.530;13.304;2024-03-06T01:39:13;2.80;99.90
6724;DHT22;3399;52.530;13.304;2024-03-06T01:41:49;2.90;99.90
6724;DHT22;3399;52.530;13.304;2024-03-06T01:44:15;3.10;99.90
6724;DHT22;3399;52.530;13.304;2024-03-06T01:46:42;3.20;99.90
6724;DHT22;3399;52.530;13.304;2024-03-06T01:49:08;3.40;99.90
6724;DHT22;3399;52.530;13.304;2024-03-06T01:51:34;3.40;99.90
6724;DHT22;3399;52.530;13.304;2024-03-06T01:54:01;3.60;99.90
6724;DHT22;3399;52.530;13.304;2024-03-06T01:56:30;3.60;99.90
6724;DHT22;3399;52.530;13.304;2024-03-06T01:58:58;3.60;99.90
6724;DHT22;3399;52.530;13.304;2024-03-06T02:01:24;3.60;99.90
6724;DHT22;3399;52.530;13.304;2024-03-06T02:03:49;3.60;99.90
6724;DHT22;3399;52.530;13.304;2024-03-06T02:06:16;3.50;99.90
6724;DHT22;3399;52.530;13.304;2024-03-06T02:08:47;3.20;99.90
6724;DHT22;3399;52.530;13.304;2024-03-06T02:11:13;3.00;99.90
6724;DHT22;3399;52.530;13.304;2024-03-06T02:13:39;2.90;99.90
6724;DHT22;3399;52.530;13.304;2024-03-06T02:16:05;2.90;99.90
6724;DHT22;3399;52.530;13.304;2024-03-06T02:18:31;2.80;99.90
6724;DHT22;3399;52.530;13.304;2024-03-06T02:20:57;2.70;99.90
6724;DHT22;3399;52.530;13.304;2024-03-06T02:23:22;2.60;99.90
6724;DHT22;3399;52.530;13.304;2024-03-06T02:25:49;2.70;99.90
6724;DHT22;3399;52.530;13.304;2024-03-06T02:28:15;2.90;99.90
6724;DHT22;3399;52.530;13.304;2024-03-06T02:30:42;2.80;99.90
6724;DHT22;3399;52.530;13.304;2024-03-06T02:33:08;2.70;99.90
6724;DHT22;3399;52.530;13.304;2024-03-06T02:35:34;2.60;99.90
6724;DHT22;3399;52.530;13.304;2024-03-06T02:38:04;2.60;99.90
6724;DHT22;3399;52.530;13.304;2024-03-06T02:40:33;2.60;99.90
6724;DHT22;3399;52.530;13.304;2024-03-06T02:42:58;2.70;99.90
6724;DHT22;3399;52.530;13.304;2024-03-06T02:45:24;2.80;99.90
6724;DHT22;3399;52.530;13.304;2024-03-06T02:47:50;2.70;99.90
6724;DHT22;3399;52.530;13.304;2024-03-06T02:50:15;2.60;99.90
6724;DHT22;3399;52.530;13.304;2024-03-06T02:52:41;2.30;99.90
6724;DHT22;3399;52.530;13.304;2024-03-06T02:55:07;2.20;99.90
6724;DHT22;3399;52.530;13.304;2024-03-06T02:57:32;2.30;99.90
6724;DHT22;3399;52.530;13.304;2024-03-06T02:59:58;2.40;99.90
6724;DHT22;3399;52.530;13.304;2024-03-06T03:02:24;2.50;99.90
6724;DHT22;3399;52.530;13.304;2024-03-06T03:04:51;2.60;99.90
6724;DHT22;3399;52.530;13.304;2024-03-06T03:07:18;2.80;99.90
6724;DHT22;3399;52.530;13.304;2024-03-06T03:09:45;2.90;99.90
6724;DHT22;3399;52.530;13.304;2024-03-06T03:12:10;2.90;99.90
6724;DHT22;3399;52.530;13.304;2024-03-06T03:14:37;2.80;99.90
6724;DHT22;3399;52.530;13.304;2024-03-06T03:17:02;2.80;99.90
6724;DHT22;3399;52.530;13.304;2024-03-06T03:19:30;2.90;99.90
6724;DHT22;3399;52.530;13.304;2024-03-06T03:21:57;3.00;99.90
6724;DHT22;3399;52.530;13.304;2024-03-06T03:24:23;2.90;99.90
6724;DHT22;3399;52.530;13.304;2024-03-06T03:26:51;2.70;99.90
6724;DHT22;3399;52.530;13.304;2024-03-06T03:29:16;2.70;99.90
6724;DHT22;3399;52.530;13.304;2024-03-06T03:31:42;2.80;99.90
6724;DHT22;3399;52.530;13.304;2024-03-06T03:34:07;3.00;99.90
6724;DHT22;3399;52.530;13.304;2024-03-06T03:36:34;3.10;99.90
6724;DHT22;3399;52.530;13.304;2024-03-06T03:39:00;3.00;99.90
6724;DHT22;3399;52.530;13.304;2024-03-06T03:41:25;3.10;99.90
6724;DHT22;3399;52.530;13.304;2024-03-06T03:43:51;3.10;99.90
6724;DHT22;3399;52.530;13.304;2024-03-06T03:46:16;3.00;99.90
6724;DHT22;3399;52.530;13.304;2024-03-06T03:48:41;2.90;99.90
6724;DHT22;3399;52.530;13.304;2024-03-06T03:51:07;2.90;99.90
6724;DHT22;3399;52.530;13.304;2024-03-06T03:53:36;2.90;99.90
6724;DHT22;3399;52.530;13.304;2024-03-06T03:56:02;3.00;99.90
6724;DHT22;3399;52.530;13.304;2024-03-06T03:58:28;3.00;99.90
6724;DHT22;3399;52.530;13.304;2024-03-06T04:00:54;3.00;99.90
6724;DHT22;3399;52.530;13.304;2024-03-06T04:03:21;2.90;99.90
6724;DHT22;3399;52.530;13.304;2024-03-06T04:05:48;2.90;99.90
6724;DHT22;3399;52.530;13.304;2024-03-06T04:08:13;2.70;99.90
6724;DHT22;3399;52.530;13.304;2024-03-06T04:10:39;2.60;99.90
6724;DHT22;3399;52.530;13.304;2024-03-06T04:13:04;2.60;99.90
6724;DHT22;3399;52.530;13.304;2024-03-06T04:15:32;2.70;99.90
6724;DHT22;3399;52.530;13.304;2024-03-06T04:17:58;2.70;99.90
6724;DHT22;3399;52.530;13.304;2024-03-06T04:20:24;2.70;99.90
6724;DHT22;3399;52.530;13.304;2024-03-06T04:22:49;2.60;99.90
6724;DHT22;3399;52.530;13.304;2024-03-06T04:25:16;2.60;99.90
6724;DHT22;3399;52.530;13.304;2024-03-06T04:27:42;2.50;99.90
6724;DHT22;3399;52.530;13.304;2024-03-06T04:30:08;2.50;99.90
6724;DHT22;3399;52.530;13.304;2024-03-06T04:32:33;2.40;99.90
6724;DHT22;3399;52.530;13.304;2024-03-06T04:34:59;2.40;99.90
6724;DHT22;3399;52.530;13.304;2024-03-06T04:37:24;2.30;99.90
6724;DHT22;3399;52.530;13.304;2024-03-06T04:39:52;2.30;99.90
6724;DHT22;3399;52.530;13.304;2024-03-06T04:42:17;2.30;99.90
6724;DHT22;3399;52.530;13.304;2024-03-06T04:44:45;2.30;99.90
6724;DHT22;3399;52.530;13.304;2024-03-06T04:47:10;2.30;99.90
6724;DHT22;3399;52.530;13.304;2024-03-06T04:49:35;2.40;99.90
6724;DHT22;3399;52.530;13.304;2024-03-06T04:52:01;2.50;99.90
6724;DHT22;3399;52.530;13.304;2024-03-06T04:54:26;2.50;99.90
6724;DHT22;3399;52.530;13.304;2024-03-06T04:56:52;2.60;99.90
6724;DHT22;3399;52.530;13.304;2024-03-06T04:59:17;2.70;99.90
6724;DHT22;3399;52.530;13.304;2024-03-06T05:01:43;2.80;99.90
6724;DHT22;3399;52.530;13.304;2024-03-06T05:04:09;2.90;99.90
6724;DHT22;3399;52.530;13.304;2024-03-06T05:06:35;2.90;99.90
6724;DHT22;3399;52.530;13.304;2024-03-06T05:09:01;2.90;99.90
6724;DHT22;3399;52.530;13.304;2024-03-06T05:11:27;2.90;99.90
6724;DHT22;3399;52.530;13.304;2024-03-06T05:13:52;2.50;99.90
6724;DHT22;3399;52.530;13.304;2024-03-06T05:16:18;2.40;99.90
6724;DHT22;3399;52.530;13.304;2024-03-06T05:18:43;2.50;99.90
6724;DHT22;3399;52.530;13.304;2024-03-06T05:21:09;2.50;99.90
6724;DHT22;3399;52.530;13.304;2024-03-06T05:23:34;2.50;99.90
6724;DHT22;3399;52.530;13.304;2024-03-06T05:26:00;2.60;99.90
6724;DHT22;3399;52.530;13.304;2024-03-06T05:28:25;2.60;99.90
6724;DHT22;3399;52.530;13.304;2024-03-06T05:30:51;2.70;99.90
6724;DHT22;3399;52.530;13.304;2024-03-06T05:33:16;2.70;99.90
6724;DHT22;3399;52.530;13.304;2024-03-06T05:35:42;2.70;99.90
6724;DHT22;3399;52.530;13.304;2024-03-06T05:38:07;2.70;99.90
6724;DHT22;3399;52.530;13.304;2024-03-06T05:40:33;2.70;99.90
6724;DHT22;3399;52.530;13.304;2024-03-06T05:43:02;2.70;99.90
6724;DHT22;3399;52.530;13.304;2024-03-06T05:45:28;2.60;99.90
6724;DHT22;3399;52.530;13.304;2024-03-06T05:47:54;2.50;99.90
6724;DHT22;3399;52.530;13.304;2024-03-06T05:50:19;2.50;99.90
6724;DHT22;3399;52.530;13.304;2024-03-06T05:52:45;2.50;99.90
6724;DHT22;3399;52.530;13.304;2024-03-06T05:55:10;2.60;99.90
6724;DHT22;3399;52.530;13.304;2024-03-06T05:57:36;2.50;99.90
6724;DHT22;3399;52.530;13.304;2024-03-06T06:00:02;2.50;99.90
6724;DHT22;3399;52.530;13.304;2024-03-06T06:02:29;2.50;99.90
6724;DHT22;3399;52.530;13.304;2024-03-06T06:04:55;2.50;99.90
6724;DHT22;3399;52.530;13.304;2024-03-06T06:07:20;2.40;99.90
6724;DHT22;3399;52.530;13.304;2024-03-06T06:09:46;2.40;99.90
6724;DHT22;3399;52.530;13.304;2024-03-06T06:12:11;2.40;99.90
6724;DHT22;3399;52.530;13.304;2024-03-06T06:14:37;2.30;99.90
6724;DHT22;3399;52.530;13.304;2024-03-06T06:17:02;2.30;99.90
6724;DHT22;3399;52.530;13.304;2024-03-06T06:19:28;2.30;99.90
6724;DHT22;3399;52.530;13.304;2024-03-06T06:21:54;2.30;99.90
6724;DHT22;3399;52.530;13.304;2024-03-06T06:24:20;2.30;99.90
6724;DHT22;3399;52.530;13.304;2024-03-06T06:26:45;2.30;99.90
6724;DHT22;3399;52.530;13.304;2024-03-06T06:29:11;2.30;99.90
6724;DHT22;3399;52.530;13.304;2024-03-06T06:31:36;2.10;99.90
6724;DHT22;3399;52.530;13.304;2024-03-06T06:34:02;1.90;99.90
6724;DHT22;3399;52.530;13.304;2024-03-06T06:36:28;1.90;99.90
6724;DHT22;3399;52.530;13.304;2024-03-06T06:38:54;1.90;99.90
6724;DHT22;3399;52.530;13.304;2024-03-06T06:41:20;1.90;99.90
6724;DHT22;3399;52.530;13.304;2024-03-06T06:43:46;1.80;99.90
6724;DHT22;3399;52.530;13.304;2024-03-06T06:46:12;1.90;99.90
6724;DHT22;3399;52.530;13.304;2024-03-06T06:48:38;2.10;99.90
6724;DHT22;3399;52.530;13.304;2024-03-06T06:51:04;2.10;99.90
6724;DHT22;3399;52.530;13.304;2024-03-06T06:53:30;2.30;99.90
6724;DHT22;3399;52.530;13.304;2024-03-06T06:55:56;2.50;99.90
6724;DHT22;3399;52.530;13.304;2024-03-06T06:58:22;2.60;99.90
6724;DHT22;3399;52.530;13.304;2024-03-06T07:00:48;2.80;99.90
6724;DHT22;3399;52.530;13.304;2024-03-06T07:03:14;2.90;99.90
6724;DHT22;3399;52.530;13.304;2024-03-06T07:05:39;2.90;99.90
6724;DHT22;3399;52.530;13.304;2024-03-06T07:08:07;3.00;99.90
6724;DHT22;3399;52.530;13.304;2024-03-06T07:10:33;3.10;99.90
6724;DHT22;3399;52.530;13.304;2024-03-06T07:13:01;3.10;99.90
6724;DHT22;3399;52.530;13.304;2024-03-06T07:15:26;3.20;99.90
6724;DHT22;3399;52.530;13.304;2024-03-06T07:17:52;3.20;99.90
6724;DHT22;3399;52.530;13.304;2024-03-06T07:20:18;3.40;99.90
6724;DHT22;3399;52.530;13.304;2024-03-06T07:22:43;3.40;99.90
6724;DHT22;3399;52.530;13.304;2024-03-06T07:25:09;3.40;99.90
6724;DHT22;3399;52.530;13.304;2024-03-06T07:27:35;3.60;99.90
6724;DHT22;3399;52.530;13.304;2024-03-06T07:30:01;3.70;99.90
6724;DHT22;3399;52.530;13.304;2024-03-06T07:32:26;3.80;99.90
6724;DHT22;3399;52.530;13.304;2024-03-06T07:34:52;3.90;99.90
6724;DHT22;3399;52.530;13.304;2024-03-06T07:37:17;4.00;99.90
6724;DHT22;3399;52.530;13.304;2024-03-06T07:39:43;4.00;99.90
6724;DHT22;3399;52.530;13.304;2024-03-06T07:42:09;4.20;99.90
6724;DHT22;3399;52.530;13.304;2024-03-06T07:44:36;4.20;99.90
6724;DHT22;3399;52.530;13.304;2024-03-06T07:47:01;4.20;99.90
6724;DHT22;3399;52.530;13.304;2024-03-06T07:49:27;4.40;99.90
6724;DHT22;3399;52.530;13.304;2024-03-06T07:51:52;4.40;99.90
6724;DHT22;3399;52.530;13.304;2024-03-06T07:54:18;4.60;99.90
6724;DHT22;3399;52.530;13.304;2024-03-06T07:56:44;4.60;99.90
6724;DHT22;3399;52.530;13.304;2024-03-06T07:59:09;4.60;99.90
6724;DHT22;3399;52.530;13.304;2024-03-06T08:01:38;4.70;99.90
6724;DHT22;3399;52.530;13.304;2024-03-06T08:04:03;4.70;99.90
6724;DHT22;3399;52.530;13.304;2024-03-06T08:06:29;4.70;99.90
6724;DHT22;3399;52.530;13.304;2024-03-06T08:08:54;4.90;99.90
6724;DHT22;3399;52.530;13.304;2024-03-06T08:11:20;4.70;99.90
6724;DHT22;3399;52.530;13.304;2024-03-06T08:13:48;4.60;99.90
6724;DHT22;3399;52.530;13.304;2024-03-06T08:16:14;4.70;99.90
6724;DHT22;3399;52.530;13.304;2024-03-06T08:18:39;4.70;99.90
6724;DHT22;3399;52.530;13.304;2024-03-06T08:21:04;4.80;99.90
6724;DHT22;3399;52.530;13.304;2024-03-06T08:23:31;5.00;99.90
6724;DHT22;3399;52.530;13.304;2024-03-06T08:25:58;5.10;99.90
6724;DHT22;3399;52.530;13.304;2024-03-06T08:28:24;5.00;99.90
6724;DHT22;3399;52.530;13.304;2024-03-06T08:30:50;4.90;99.90
6724;DHT22;3399;52.530;13.304;2024-03-06T08:33:17;5.10;99.90
6724;DHT22;3399;52.530;13.304;2024-03-06T08:35:43;5.10;99.90
6724;DHT22;3399;52.530;13.304;2024-03-06T08:38:08;5.30;99.90
6724;DHT22;3399;52.530;13.304;2024-03-06T08:40:34;5.40;99.90
6724;DHT22;3399;52.530;13.304;2024-03-06T08:43:00;5.70;99.90
6724;DHT22;3399;52.530;13.304;2024-03-06T08:45:25;5.60;99.90
6724;DHT22;3399;52.530;13.304;2024-03-06T08:47:51;5.70;99.90
6724;DHT22;3399;52.530;13.304;2024-03-06T08:50:19;5.70;99.90
6724;DHT22;3399;52.530;13.304;2024-03-06T08:52:45;5.80;99.90
6724;DHT22;3399;52.530;13.304;2024-03-06T08:55:11;5.70;99.90
6724;DHT22;3399;52.530;13.304;2024-03-06T08:57:37;5.80;99.90
6724;DHT22;3399;52.530;13.304;2024-03-06T09:00:03;5.80;99.90
6724;DHT22;3399;52.530;13.304;2024-03-06T09:02:29;5.70;99.90
6724;DHT22;3399;52.530;13.304;2024-03-06T09:04:55;5.90;99.90
6724;DHT22;3399;52.530;13.304;2024-03-06T09:07:21;6.00;99.90
6724;DHT22;3399;52.530;13.304;2024-03-06T09:09:50;6.10;99.90
6724;DHT22;3399;52.530;13.304;2024-03-06T09:12:18;6.30;99.90
6724;DHT22;3399;52.530;13.304;2024-03-06T09:14:44;6.40;99.90
6724;DHT22;3399;52.530;13.304;2024-03-06T09:17:10;6.50;99.90
6724;DHT22;3399;52.530;13.304;2024-03-06T09:19:38;6.60;99.90
6724;DHT22;3399;52.530;13.304;2024-03-06T09:22:04;6.40;99.90
6724;DHT22;3399;52.530;13.304;2024-03-06T09:24:29;6.30;99.90
6724;DHT22;3399;52.530;13.304;2024-03-06T09:26:55;6.50;99.90
6724;DHT22;3399;52.530;13.304;2024-03-06T09:29:20;6.50;99.90
6724;DHT22;3399;52.530;13.304;2024-03-06T09:31:47;6.50;99.90
6724;DHT22;3399;52.530;13.304;2024-03-06T09:34:13;6.40;99.90
6724;DHT22;3399;52.530;13.304;2024-03-06T09:36:45;6.40;99.90
6724;DHT22;3399;52.530;13.304;2024-03-06T09:39:15;6.40;99.90
6724;DHT22;3399;52.530;13.304;2024-03-06T09:41:49;6.30;99.90
6724;DHT22;3399;52.530;13.304;2024-03-06T09:44:16;6.40;99.90
6724;DHT22;3399;52.530;13.304;2024-03-06T09:46:46;6.40;99.90
6724;DHT22;3399;52.530;13.304;2024-03-06T09:49:13;6.40;99.90
6724;DHT22;3399;52.530;13.304;2024-03-06T09:51:48;6.50;99.90
6724;DHT22;3399;52.530;13.304;2024-03-06T09:54:16;6.40;99.90
6724;DHT22;3399;52.530;13.304;2024-03-06T09:56:43;6.60;99.90
6724;DHT22;3399;52.530;13.304;2024-03-06T09:59:09;6.60;99.90
6724;DHT22;3399;52.530;13.304;2024-03-06T10:01:39;6.80;99.90
6724;DHT22;3399;52.530;13.304;2024-03-06T10:04:26;7.00;99.90
6724;DHT22;3399;52.530;13.304;2024-03-06T10:06:56;6.80;99.90
6724;DHT22;3399;52.530;13.304;2024-03-06T10:09:22;6.80;99.90
6724;DHT22;3399;52.530;13.304;2024-03-06T10:11:48;6.70;99.90
6724;DHT22;3399;52.530;13.304;2024-03-06T10:14:14;6.60;99.90
6724;DHT22;3399;52.530;13.304;2024-03-06T10:16:56;6.70;99.90
6724;DHT22;3399;52.530;13.304;2024-03-06T10:19:23;6.90;99.90
6724;DHT22;3399;52.530;13.304;2024-03-06T10:21:50;6.90;99.90
6724;DHT22;3399;52.530;13.304;2024-03-06T10:24:19;6.80;99.90
6724;DHT22;3399;52.530;13.304;2024-03-06T10:26:46;7.00;99.90
6724;DHT22;3399;52.530;13.304;2024-03-06T10:29:15;7.30;99.90
6724;DHT22;3399;52.530;13.304;2024-03-06T10:31:40;7.10;99.90
6724;DHT22;3399;52.530;13.304;2024-03-06T10:34:07;7.40;99.90
6724;DHT22;3399;52.530;13.304;2024-03-06T10:36:33;7.50;99.90
6724;DHT22;3399;52.530;13.304;2024-03-06T10:39:01;7.30;99.90
6724;DHT22;3399;52.530;13.304;2024-03-06T10:41:28;7.20;99.90
6724;DHT22;3399;52.530;13.304;2024-03-06T10:43:59;7.20;99.90
6724;DHT22;3399;52.530;13.304;2024-03-06T10:46:27;7.20;99.90
6724;DHT22;3399;52.530;13.304;2024-03-06T10:48:54;7.40;99.90
6724;DHT22;3399;52.530;13.304;2024-03-06T10:51:23;7.80;99.90
6724;DHT22;3399;52.530;13.304;2024-03-06T10:53:50;8.30;99.90
6724;DHT22;3399;52.530;13.304;2024-03-06T10:56:17;8.50;99.90
6724;DHT22;3399;52.530;13.304;2024-03-06T10:58:44;8.50;99.90
6724;DHT22;3399;52.530;13.304;2024-03-06T11:01:10;8.30;99.90
6724;DHT22;3399;52.530;13.304;2024-03-06T11:03:37;8.30;99.90
6724;DHT22;3399;52.530;13.304;2024-03-06T11:06:03;8.50;99.90
6724;DHT22;3399;52.530;13.304;2024-03-06T11:08:29;8.70;99.90
6724;DHT22;3399;52.530;13.304;2024-03-06T11:11:19;9.10;99.90
6724;DHT22;3399;52.530;13.304;2024-03-06T11:13:45;9.60;99.90
6724;DHT22;3399;52.530;13.304;2024-03-06T11:16:11;9.80;99.90
6724;DHT22;3399;52.530;13.304;2024-03-06T11:23:34;10.20;99.90
6724;DHT22;3399;52.530;13.304;2024-03-06T11:26:04;10.00;99.90
6724;DHT22;3399;52.530;13.304;2024-03-06T11:28:35;9.90;99.90
6724;DHT22;3399;52.530;13.304;2024-03-06T11:31:02;9.30;99.90
6724;DHT22;3399;52.530;13.304;2024-03-06T11:33:38;8.90;99.90
6724;DHT22;3399;52.530;13.304;2024-03-06T11:39:04;8.50;99.90
6724;DHT22;3399;52.530;13.304;2024-03-06T11:44:21;8.50;99.90
6724;DHT22;3399;52.530;13.304;2024-03-06T11:47:00;8.40;99.90
6724;DHT22;3399;52.530;13.304;2024-03-06T11:49:29;9.00;99.90
6724;DHT22;3399;52.530;13.304;2024-03-06T11:51:59;9.70;99.90
6724;DHT22;3399;52.530;13.304;2024-03-06T11:54:25;10.40;99.90
6724;DHT22;3399;52.530;13.304;2024-03-06T11:56:56;11.00;99.90
6724;DHT22;3399;52.530;13.304;2024-03-06T11:59:40;11.40;98.30
6724;DHT22;3399;52.530;13.304;2024-03-06T12:02:05;11.10;98.70
6724;DHT22;3399;52.530;13.304;2024-03-06T12:04:32;10.90;98.50
6724;DHT22;3399;52.530;13.304;2024-03-06T12:07:03;10.60;98.30
6724;DHT22;3399;52.530;13.304;2024-03-06T12:09:33;10.20;98.70
6724;DHT22;3399;52.530;13.304;2024-03-06T12:11:58;11.00;97.30
6724;DHT22;3399;52.530;13.304;2024-03-06T12:14:25;11.60;95.90
6724;DHT22;3399;52.530;13.304;2024-03-06T12:17:01;11.90;95.80
6724;DHT22;3399;52.530;13.304;2024-03-06T12:19:34;12.40;95.20
6724;DHT22;3399;52.530;13.304;2024-03-06T12:22:01;12.30;94.60
6724;DHT22;3399;52.530;13.304;2024-03-06T12:24:26;12.20;93.60
6724;DHT22;3399;52.530;13.304;2024-03-06T12:27:03;12.20;93.60
6724;DHT22;3399;52.530;13.304;2024-03-06T12:29:30;12.50;93.50
6724;DHT22;3399;52.530;13.304;2024-03-06T12:31:58;12.00;92.90
6724;DHT22;3399;52.530;13.304;2024-03-06T12:34:23;11.50;93.70
6724;DHT22;3399;52.530;13.304;2024-03-06T12:36:49;10.20;96.10
6724;DHT22;3399;52.530;13.304;2024-03-06T12:39:18;9.80;98.20
6724;DHT22;3399;52.530;13.304;2024-03-06T12:41:47;9.90;97.30
6724;DHT22;3399;52.530;13.304;2024-03-06T12:44:13;9.60;97.70
6724;DHT22;3399;52.530;13.304;2024-03-06T12:46:38;9.40;99.40
6724;DHT22;3399;52.530;13.304;2024-03-06T12:49:04;9.60;99.60
6724;DHT22;3399;52.530;13.304;2024-03-06T12:51:29;9.60;99.70
6724;DHT22;3399;52.530;13.304;2024-03-06T12:53:55;9.70;99.40
6724;DHT22;3399;52.530;13.304;2024-03-06T12:56:20;10.20;97.90
6724;DHT22;3399;52.530;13.304;2024-03-06T12:58:46;10.00;98.30
6724;DHT22;3399;52.530;13.304;2024-03-06T13:01:12;9.60;99.80
6724;DHT22;3399;52.530;13.304;2024-03-06T13:03:37;9.50;99.90
6724;DHT22;3399;52.530;13.304;2024-03-06T13:06:04;9.20;99.90
6724;DHT22;3399;52.530;13.304;2024-03-06T13:08:30;9.30;99.90
6724;DHT22;3399;52.530;13.304;2024-03-06T13:10:56;10.00;99.90
6724;DHT22;3399;52.530;13.304;2024-03-06T13:13:22;10.90;99.70
6724;DHT22;3399;52.530;13.304;2024-03-06T13:15:54;11.50;98.30
6724;DHT22;3399;52.530;13.304;2024-03-06T13:18:19;11.40;96.80
6724;DHT22;3399;52.530;13.304;2024-03-06T13:20:45;11.40;97.20
6724;DHT22;3399;52.530;13.304;2024-03-06T13:23:11;9.80;98.30
6724;DHT22;3399;52.530;13.304;2024-03-06T13:25:37;9.40;99.40
6724;DHT22;3399;52.530;13.304;2024-03-06T13:28:03;9.30;99.90
6724;DHT22;3399;52.530;13.304;2024-03-06T13:30:29;9.40;99.90
6724;DHT22;3399;52.530;13.304;2024-03-06T13:32:54;9.40;99.90
6724;DHT22;3399;52.530;13.304;2024-03-06T13:35:20;9.20;99.90
6724;DHT22;3399;52.530;13.304;2024-03-06T13:37:46;9.10;99.90
6724;DHT22;3399;52.530;13.304;2024-03-06T13:40:12;9.20;99.90
6724;DHT22;3399;52.530;13.304;2024-03-06T13:42:40;9.90;99.90
6724;DHT22;3399;52.530;13.304;2024-03-06T13:45:07;10.30;98.60
6724;DHT22;3399;52.530;13.304;2024-03-06T13:47:37;10.10;97.90
6724;DHT22;3399;52.530;13.304;2024-03-06T13:50:03;10.10;98.00
6724;DHT22;3399;52.530;13.304;2024-03-06T13:52:29;10.10;98.20
6724;DHT22;3399;52.530;13.304;2024-03-06T13:54:55;9.90;98.30
6724;DHT22;3399;52.530;13.304;2024-03-06T13:57:20;9.50;98.50
6724;DHT22;3399;52.530;13.304;2024-03-06T13:59:46;9.30;99.20
6724;DHT22;3399;52.530;13.304;2024-03-06T14:02:11;9.40;98.90
6724;DHT22;3399;52.530;13.304;2024-03-06T14:04:37;9.50;98.20
6724;DHT22;3399;52.530;13.304;2024-03-06T14:07:03;9.30;97.20
6724;DHT22;3399;52.530;13.304;2024-03-06T14:09:28;9.20;97.40
6724;DHT22;3399;52.530;13.304;2024-03-06T14:11:54;9.00;97.60
6724;DHT22;3399;52.530;13.304;2024-03-06T14:14:20;9.20;97.70
6724;DHT22;3399;52.530;13.304;2024-03-06T14:16:46;9.30;96.20
6724;DHT22;3399;52.530;13.304;2024-03-06T14:19:12;9.20;95.50
6724;DHT22;3399;52.530;13.304;2024-03-06T14:21:38;9.10;96.00
6724;DHT22;3399;52.530;13.304;2024-03-06T14:24:04;9.20;96.40
6724;DHT22;3399;52.530;13.304;2024-03-06T14:26:32;9.20;97.20
6724;DHT22;3399;52.530;13.304;2024-03-06T14:28:58;9.20;97.40
6724;DHT22;3399;52.530;13.304;2024-03-06T14:31:24;9.00;97.60
6724;DHT22;3399;52.530;13.304;2024-03-06T14:33:49;8.90;97.80
6724;DHT22;3399;52.530;13.304;2024-03-06T14:36:16;8.80;97.10
6724;DHT22;3399;52.530;13.304;2024-03-06T14:38:42;8.90;96.90
6724;DHT22;3399;52.530;13.304;2024-03-06T14:41:09;9.00;96.90
6724;DHT22;3399;52.530;13.304;2024-03-06T14:43:35;9.10;97.50
6724;DHT22;3399;52.530;13.304;2024-03-06T14:46:06;9.00;98.00
6724;DHT22;3399;52.530;13.304;2024-03-06T14:48:34;9.00;98.40
6724;DHT22;3399;52.530;13.304;2024-03-06T14:51:00;9.10;98.90
6724;DHT22;3399;52.530;13.304;2024-03-06T14:53:26;9.00;99.40
6724;DHT22;3399;52.530;13.304;2024-03-06T14:55:51;9.10;99.90
6724;DHT22;3399;52.530;13.304;2024-03-06T14:58:17;9.00;99.90
6724;DHT22;3399;52.530;13.304;2024-03-06T15:00:43;8.90;99.70
6724;DHT22;3399;52.530;13.304;2024-03-06T15:03:08;8.90;99.90
6724;DHT22;3399;52.530;13.304;2024-03-06T15:05:34;8.80;99.70
6724;DHT22;3399;52.530;13.304;2024-03-06T15:08:00;8.90;99.80
6724;DHT22;3399;52.530;13.304;2024-03-06T15:10:26;8.90;98.90
6724;DHT22;3399;52.530;13.304;2024-03-06T15:12:51;8.80;99.00
6724;DHT22;3399;52.530;13.304;2024-03-06T15:15:17;8.90;99.00
6724;DHT22;3399;52.530;13.304;2024-03-06T15:17:42;8.80;98.80
6724;DHT22;3399;52.530;13.304;2024-03-06T15:20:10;8.80;99.10
6724;DHT22;3399;52.530;13.304;2024-03-06T15:22:36;8.80;98.80
6724;DHT22;3399;52.530;13.304;2024-03-06T15:25:07;8.90;98.40
6724;DHT22;3399;52.530;13.304;2024-03-06T15:27:34;8.90;98.10
6724;DHT22;3399;52.530;13.304;2024-03-06T15:29:59;9.00;98.30
6724;DHT22;3399;52.530;13.304;2024-03-06T15:32:25;9.00;98.70
6724;DHT22;3399;52.530;13.304;2024-03-06T15:34:50;9.00;99.10
6724;DHT22;3399;52.530;13.304;2024-03-06T15:37:18;9.00;99.00
6724;DHT22;3399;52.530;13.304;2024-03-06T15:39:47;8.90;99.20
6724;DHT22;3399;52.530;13.304;2024-03-06T15:42:15;8.80;99.90
6724;DHT22;3399;52.530;13.304;2024-03-06T15:44:40;8.80;99.90
6724;DHT22;3399;52.530;13.304;2024-03-06T15:47:07;8.90;99.90
6724;DHT22;3399;52.530;13.304;2024-03-06T15:49:32;8.80;99.90
6724;DHT22;3399;52.530;13.304;2024-03-06T15:51:58;8.70;99.90
6724;DHT22;3399;52.530;13.304;2024-03-06T15:54:23;8.80;99.90
6724;DHT22;3399;52.530;13.304;2024-03-06T15:56:49;8.80;99.90
6724;DHT22;3399;52.530;13.304;2024-03-06T15:59:15;8.80;99.90
6724;DHT22;3399;52.530;13.304;2024-03-06T16:01:40;8.80;99.90
6724;DHT22;3399;52.530;13.304;2024-03-06T16:04:06;8.70;99.90
6724;DHT22;3399;52.530;13.304;2024-03-06T16:06:31;8.70;99.90